Time;durP1;ratioP1;P1;durP2;ratioP2;P2;SDS_P1;SDS_P2;PMS_P1;PMS_P2;Temp;Humidity;BMP_temperature;BMP_pressure;BME280_temperature;BME280_humidity;BME280_pressure;Samples;Min_cycle;Max_cycle;Signal;HPM_P1;HPM_P2
2023/12/28 00:00:07;;;;;;;1.80;1.70;;;12.10;93.90;;;;;;5021059;28;20580;-87
2023/12/28 00:02:40;;;;;;;1.40;1.23;;;12.10;94.20;;;;;;5029471;28;20442;-85
2023/12/28 00:05:26;;;;;;;1.30;1.20;;;12.10;94.50;;;;;;5028231;28;20456;-84
2023/12/28 00:08:19;;;;;;;;;;;;;;;;;;;;;
2023/12/28 00:11:34;;;;;;;1.47;1.30;;;12.00;95.20;;;;;;4968077;28;20437;-85
2023/12/28 00:14:32;;;;;;;1.60;1.50;;;11.80;95.50;;;;;;5017439;28;20470;-87
2023/12/28 00:17:13;;;;;;;2.70;1.80;;;11.90;96.20;;;;;;5018342;28;20473;-87
2023/12/28 00:20:11;;;;;;;2.83;1.70;;;12.00;96.20;;;;;;5029214;28;20500;-88
2023/12/28 00:22:48;;;;;;;1.37;1.27;;;11.90;96.40;;;;;;5027773;28;20445;-85
2023/12/28 00:25:51;;;;;;;1.40;1.30;;;12.00;96.60;;;;;;5026059;28;20484;-87
2023/12/28 00:28:31;;;;;;;1.83;1.70;;;11.90;96.90;;;;;;5034890;28;20504;-87
2023/12/28 00:31:17;;;;;;;2.23;1.60;;;11.80;97.20;;;;;;5016176;28;20445;-86
2023/12/28 00:34:08;;;;;;;3.53;1.73;;;11.80;97.50;;;;;;5014686;28;20465;-89
2023/12/28 00:36:57;;;;;;;2.03;1.93;;;11.70;97.70;;;;;;5011533;28;20472;-86
2023/12/28 00:39:36;;;;;;;1.80;1.60;;;11.80;97.90;;;;;;5014169;28;20447;-86
2023/12/28 00:42:19;;;;;;;1.43;1.33;;;11.80;98.00;;;;;;5010090;28;20461;-88
2023/12/28 00:45:00;;;;;;;1.73;1.47;;;11.70;98.20;;;;;;5035757;28;20477;-88
2023/12/28 00:47:42;;;;;;;2.40;2.30;;;11.70;98.20;;;;;;5022363;28;20465;-87
2023/12/28 00:50:35;;;;;;;1.87;1.40;;;11.70;98.20;;;;;;5026454;28;20575;-87
2023/12/28 00:53:39;;;;;;;1.40;1.30;;;11.80;98.30;;;;;;5009963;28;20442;-88
2023/12/28 00:56:35;;;;;;;1.97;1.27;;;11.70;98.40;;;;;;5013192;28;20489;-87
2023/12/28 00:59:35;;;;;;;1.83;1.60;;;11.80;98.50;;;;;;5012224;28;20488;-88
2023/12/28 01:02:27;;;;;;;3.10;1.90;;;11.70;98.20;;;;;;5010863;28;20518;-85
2023/12/28 01:05:52;;;;;;;3.03;1.50;;;11.70;98.40;;;;;;5015680;28;20456;-88
2023/12/28 01:08:33;;;;;;;1.50;1.40;;;11.60;98.50;;;;;;5007589;28;20492;-87
2023/12/28 01:11:21;;;;;;;1.40;1.30;;;11.80;98.50;;;;;;5009880;28;20469;-88
2023/12/28 01:14:13;;;;;;;2.73;1.73;;;11.70;98.40;;;;;;5009262;28;20450;-87
2023/12/28 01:16:53;;;;;;;1.87;1.40;;;11.80;98.50;;;;;;5006570;28;20472;-89
2023/12/28 01:23:28;;;;;;;1.67;1.40;;;11.90;98.50;;;;;;5028425;28;20423;-88
2023/12/28 01:26:36;;;;;;;1.80;1.43;;;11.90;98.40;;;;;;5067974;22;20617;-85
2023/12/28 01:29:50;;;;;;;2.83;1.60;;;11.80;98.50;;;;;;5031274;28;20486;-86
2023/12/28 01:32:37;;;;;;;1.20;1.10;;;11.70;98.70;;;;;;5025341;28;20447;-88
2023/12/28 01:35:41;;;;;;;1.33;1.17;;;11.80;98.90;;;;;;5035175;28;20531;-87
2023/12/28 01:38:59;;;;;;;1.37;1.27;;;11.90;98.80;;;;;;5027990;28;20493;-88
2023/12/28 01:44:24;;;;;;;1.63;1.40;;;11.70;99.00;;;;;;5047496;28;20453;-86
2023/12/28 01:47:53;;;;;;;1.27;1.00;;;11.80;99.00;;;;;;5017835;28;20481;-83
2023/12/28 01:50:55;;;;;;;2.17;1.23;;;11.80;99.10;;;;;;5020130;28;20484;-86
2023/12/28 01:53:36;;;;;;;1.23;1.13;;;11.90;99.10;;;;;;5016010;28;20833;-88
2023/12/28 01:56:54;;;;;;;1.27;1.00;;;11.80;99.10;;;;;;5017559;28;20463;-87
2023/12/28 02:00:03;;;;;;;0.90;0.90;;;11.80;99.20;;;;;;5009746;28;20446;-85
2023/12/28 02:02:41;;;;;;;0.80;0.80;;;11.70;99.40;;;;;;5035149;28;21063;-87
2023/12/28 02:05:41;;;;;;;1.07;0.97;;;11.80;99.40;;;;;;5032598;28;21073;-87
2023/12/28 02:08:39;;;;;;;;;;;;;;;;;;;;;
2023/12/28 02:11:23;;;;;;;1.07;0.90;;;11.70;99.50;;;;;;5037935;28;20494;-85
2023/12/28 02:19:56;;;;;;;1.07;0.97;;;11.80;99.30;;;;;;5038772;28;20476;-86
2023/12/28 02:22:30;;;;;;;0.80;0.80;;;11.80;99.30;;;;;;5030112;28;20452;-85
2023/12/28 02:25:37;;;;;;;0.90;0.80;;;11.80;99.30;;;;;;5041260;28;20467;-86
2023/12/28 02:28:23;;;;;;;0.70;0.70;;;11.90;99.30;;;;;;5040503;28;20454;-84
2023/12/28 02:30:56;;;;;;;2.03;1.00;;;11.90;99.20;;;;;;5039300;28;20575;-87
2023/12/28 02:33:58;;;;;;;0.87;0.73;;;11.90;99.10;;;;;;5035620;28;20923;-87
2023/12/28 02:36:28;;;;;;;0.70;0.70;;;11.80;99.20;;;;;;5034189;28;20504;-87
2023/12/28 02:39:11;;;;;;;1.20;1.13;;;11.80;99.40;;;;;;5039155;28;20485;-85
2023/12/28 02:42:02;;;;;;;0.77;0.70;;;11.80;99.40;;;;;;5054719;28;20424;-86
2023/12/28 02:45:05;;;;;;;1.27;0.80;;;11.80;99.50;;;;;;5047211;28;20472;-86
2023/12/28 02:47:46;;;;;;;0.97;0.87;;;11.80;99.50;;;;;;5049157;28;20462;-87
2023/12/28 02:50:38;;;;;;;1.00;1.00;;;11.80;99.50;;;;;;5053585;28;20535;-87
2023/12/28 02:53:52;;;;;;;0.80;0.80;;;11.80;99.60;;;;;;5031381;28;20517;-85
2023/12/28 02:57:18;;;;;;;0.70;0.70;;;11.80;99.80;;;;;;4943201;28;20460;-85
2023/12/28 03:00:04;;;;;;;0.83;0.80;;;11.90;99.80;;;;;;5030995;28;20480;-86
2023/12/28 03:02:43;;;;;;;1.00;1.00;;;11.90;99.80;;;;;;5026483;28;20465;-85
2023/12/28 03:05:18;;;;;;;0.70;0.63;;;11.90;99.70;;;;;;5034558;28;20485;-87
2023/12/28 03:08:09;;;;;;;1.43;0.87;;;11.80;99.70;;;;;;5023163;28;20529;-87
2023/12/28 03:10:56;;;;;;;0.97;0.90;;;11.80;99.80;;;;;;5015008;28;20572;-87
2023/12/28 03:13:44;;;;;;;0.80;0.80;;;11.80;99.70;;;;;;5019125;28;20461;-86
2023/12/28 03:16:16;;;;;;;1.13;1.10;;;11.80;99.90;;;;;;5023127;28;20956;-85
2023/12/28 03:19:15;;;;;;;1.10;1.00;;;11.80;99.80;;;;;;5029166;28;20468;-86
2023/12/28 03:21:58;;;;;;;;;;;;;;;;;;;;;
2023/12/28 03:24:30;;;;;;;1.03;1.00;;;11.70;99.90;;;;;;5033501;28;20488;-86
2023/12/28 03:27:17;;;;;;;1.20;1.10;;;11.90;99.90;;;;;;5036658;28;20982;-84
2023/12/28 03:29:48;;;;;;;1.50;1.30;;;11.70;99.80;;;;;;5025613;28;20476;-83
2023/12/28 03:32:24;;;;;;;1.93;1.33;;;11.70;99.90;;;;;;5039635;28;20452;-86
2023/12/28 03:34:55;;;;;;;1.10;0.97;;;11.70;99.90;;;;;;5027029;28;20472;-83
2023/12/28 03:37:47;;;;;;;1.77;1.10;;;11.70;99.90;;;;;;5031836;28;20530;-87
2023/12/28 03:40:51;;;;;;;;;;;;;;;;;;;;;
2023/12/28 03:43:32;;;;;;;1.13;1.03;;;11.70;99.90;;;;;;5039378;28;20624;-85
2023/12/28 03:46:09;;;;;;;1.47;1.37;;;11.70;99.90;;;;;;5041700;28;20446;-85
2023/12/28 03:48:50;;;;;;;1.60;1.20;;;11.70;99.90;;;;;;5059955;28;20463;-85
2023/12/28 03:51:32;;;;;;;1.47;1.37;;;11.70;99.90;;;;;;5044936;28;20495;-84
2023/12/28 03:54:13;;;;;;;1.83;1.27;;;11.70;99.80;;;;;;5039609;28;20444;-85
2023/12/28 03:56:47;;;;;;;1.93;1.67;;;11.60;99.80;;;;;;5053991;28;20446;-85
2023/12/28 03:59:21;;;;;;;1.70;1.30;;;11.70;99.90;;;;;;5058835;28;20465;-86
2023/12/28 04:02:02;;;;;;;2.50;1.67;;;11.70;99.90;;;;;;5045232;28;20470;-85
2023/12/28 04:07:52;;;;;;;1.63;1.53;;;11.50;99.90;;;;;;5050866;28;20453;-84
2023/12/28 04:13:46;;;;;;;1.50;1.40;;;11.40;99.90;;;;;;5050976;28;20459;-87
2023/12/28 04:16:19;;;;;;;1.27;1.27;;;11.40;99.90;;;;;;5035039;28;20472;-86
2023/12/28 04:18:50;;;;;;;1.50;1.30;;;11.30;99.90;;;;;;5036906;28;20505;-86
2023/12/28 04:21:22;;;;;;;1.43;1.03;;;11.30;99.90;;;;;;5030230;28;20868;-87
2023/12/28 04:23:57;;;;;;;1.37;1.27;;;11.20;99.90;;;;;;5029312;28;20481;-85
2023/12/28 04:26:41;;;;;;;1.17;1.10;;;11.20;99.90;;;;;;5019372;28;20441;-86
2023/12/28 04:29:27;;;;;;;1.73;1.10;;;11.10;99.90;;;;;;5040680;28;20451;-84
2023/12/28 04:32:17;;;;;;;1.47;1.10;;;11.10;99.90;;;;;;5028112;28;20958;-86
2023/12/28 04:34:54;;;;;;;1.40;1.20;;;11.20;99.90;;;;;;5026787;28;20533;-86
2023/12/28 04:37:32;;;;;;;1.50;1.40;;;11.10;99.90;;;;;;5020375;28;20465;-88
2023/12/28 04:40:05;;;;;;;1.10;1.00;;;11.10;99.90;;;;;;5039538;28;20444;-86
2023/12/28 04:42:54;;;;;;;1.47;1.37;;;11.10;99.90;;;;;;5048802;28;20445;-85
2023/12/28 04:46:02;;;;;;;2.47;1.67;;;11.10;99.90;;;;;;5041011;28;20505;-85
2023/12/28 04:49:20;;;;;;;1.53;1.30;;;11.10;99.90;;;;;;5042391;28;20440;-85
2023/12/28 04:51:49;;;;;;;1.53;1.10;;;11.20;99.90;;;;;;5040377;28;21030;-86
2023/12/28 04:54:19;;;;;;;1.07;1.07;;;11.20;99.90;;;;;;5053725;28;20456;-85
2023/12/28 04:56:54;;;;;;;2.73;1.40;;;11.10;99.90;;;;;;5025143;28;20454;-86
2023/12/28 04:59:32;;;;;;;2.33;1.47;;;11.20;99.90;;;;;;5019686;28;20690;-86
2023/12/28 05:02:05;;;;;;;1.20;1.10;;;11.20;99.90;;;;;;5024397;28;21713;-87
2023/12/28 05:04:49;;;;;;;1.60;1.40;;;11.20;99.80;;;;;;5024761;28;20481;-87
2023/12/28 05:07:23;;;;;;;1.80;1.40;;;11.30;99.70;;;;;;5032657;28;20463;-87
2023/12/28 05:10:06;;;;;;;;;;;;;;;;;;;;;
2023/12/28 05:12:50;;;;;;;2.00;1.63;;;11.20;99.50;;;;;;5024816;28;21292;-84
2023/12/28 05:15:38;;;;;;;1.70;1.13;;;11.20;99.50;;;;;;5020029;28;21491;-88
2023/12/28 05:18:07;;;;;;;2.50;1.70;;;11.20;99.50;;;;;;5022915;28;21086;-87
2023/12/28 05:21:16;;;;;;;1.70;1.60;;;11.20;99.50;;;;;;5021553;28;20534;-84
2023/12/28 05:23:45;;;;;;;3.53;1.43;;;11.20;99.50;;;;;;5017628;28;20464;-83
2023/12/28 05:26:18;;;;;;;1.70;1.67;;;11.30;99.30;;;;;;5046422;28;20489;-85
2023/12/28 05:29:09;;;;;;;;;;;;;;;;;;;;;
2023/12/28 05:31:47;;;;;;;2.17;1.23;;;11.20;99.30;;;;;;5032298;28;20465;-85
2023/12/28 05:34:37;;;;;;;1.73;1.60;;;11.30;99.40;;;;;;5017708;28;21171;-85
2023/12/28 05:37:11;;;;;;;1.70;1.60;;;11.30;99.30;;;;;;5024357;28;20453;-85
2023/12/28 05:39:43;;;;;;;1.93;1.70;;;11.30;99.20;;;;;;5029507;28;20450;-86
2023/12/28 05:42:17;;;;;;;1.60;1.50;;;11.20;99.20;;;;;;5027728;28;20469;-85
2023/12/28 05:44:44;;;;;;;2.40;1.43;;;11.30;99.40;;;;;;5020777;28;21268;-86
2023/12/28 05:47:21;;;;;;;1.40;1.30;;;11.20;99.30;;;;;;5037039;28;20448;-85
2023/12/28 05:50:12;;;;;;;1.60;1.50;;;11.10;99.40;;;;;;5037638;28;20478;-85
2023/12/28 05:52:50;;;;;;;1.50;1.37;;;11.20;99.50;;;;;;5039907;28;20483;-85
2023/12/28 05:55:33;;;;;;;1.77;1.67;;;11.20;99.30;;;;;;5024806;28;20504;-85
2023/12/28 05:58:15;;;;;;;1.90;1.70;;;11.30;99.20;;;;;;5045739;28;20459;-87
2023/12/28 06:00:47;;;;;;;2.20;1.33;;;11.20;99.20;;;;;;5036425;28;20452;-85
2023/12/28 06:03:31;;;;;;;2.10;1.57;;;11.20;99.30;;;;;;5020554;28;20460;-87
2023/12/28 06:06:13;;;;;;;2.50;1.50;;;11.20;99.20;;;;;;5036838;28;20511;-86
2023/12/28 06:09:09;;;;;;;3.43;1.90;;;11.20;99.10;;;;;;5024389;28;20472;-87
2023/12/28 06:11:44;;;;;;;3.80;1.60;;;11.10;99.30;;;;;;5037482;28;20480;-85
2023/12/28 06:14:47;;;;;;;2.50;1.70;;;11.10;99.30;;;;;;5026589;28;20454;-85
2023/12/28 06:17:51;;;;;;;2.23;1.80;;;11.20;99.20;;;;;;5034576;28;20453;-84
2023/12/28 06:20:21;;;;;;;2.10;1.67;;;11.20;99.10;;;;;;5025146;28;20991;-86
2023/12/28 06:23:00;;;;;;;2.20;1.40;;;11.20;99.00;;;;;;5026016;28;20480;-87
2023/12/28 06:25:43;;;;;;;1.60;1.50;;;11.20;99.10;;;;;;5016528;28;20496;-86
2023/12/28 06:28:23;;;;;;;1.83;1.40;;;11.20;99.00;;;;;;5017558;28;20547;-87
2023/12/28 06:31:00;;;;;;;3.13;1.60;;;11.30;98.90;;;;;;5017006;28;20483;-87
2023/12/28 06:33:51;;;;;;;2.27;1.20;;;11.20;98.80;;;;;;5025536;28;20458;-87
2023/12/28 06:36:39;;;;;;;2.00;1.80;;;11.30;98.90;;;;;;5025666;28;20541;-86
2023/12/28 06:39:28;;;;;;;4.30;1.87;;;11.20;98.80;;;;;;5032244;28;20451;-85
2023/12/28 06:42:35;;;;;;;1.53;1.40;;;11.40;98.90;;;;;;5024708;28;20479;-84
2023/12/28 06:45:27;;;;;;;2.90;1.40;;;11.20;98.70;;;;;;4997157;28;20484;-84
2023/12/28 06:48:02;;;;;;;3.03;1.60;;;11.20;98.80;;;;;;5028558;28;20500;-87
2023/12/28 06:50:41;;;;;;;3.10;1.90;;;11.10;98.90;;;;;;5027348;28;22509;-83
2023/12/28 06:53:36;;;;;;;1.77;1.67;;;11.10;99.00;;;;;;5035735;28;21053;-86
2023/12/28 06:56:10;;;;;;;1.83;1.63;;;11.20;98.90;;;;;;5027231;28;20471;-87
2023/12/28 06:58:48;;;;;;;1.83;1.73;;;11.30;98.70;;;;;;5017669;28;20457;-87
2023/12/28 07:01:23;;;;;;;3.60;1.40;;;11.40;98.60;;;;;;5037988;28;20461;-84
2023/12/28 07:03:59;;;;;;;1.70;1.60;;;11.30;98.50;;;;;;5013527;28;20463;-85
2023/12/28 07:06:40;;;;;;;2.20;1.70;;;11.30;98.50;;;;;;5025250;28;20469;-85
2023/12/28 07:09:20;;;;;;;3.40;1.30;;;11.30;98.40;;;;;;5039171;28;20457;-85
2023/12/28 07:12:00;;;;;;;2.33;1.77;;;11.40;98.40;;;;;;5040599;28;20491;-83
2023/12/28 07:14:40;;;;;;;1.77;1.60;;;11.40;98.30;;;;;;5030373;28;20460;-86
2023/12/28 07:17:17;;;;;;;3.37;1.80;;;11.40;98.30;;;;;;5038622;28;20459;-87
2023/12/28 07:20:13;;;;;;;1.90;1.70;;;11.50;98.10;;;;;;5039478;28;20500;-86
2023/12/28 07:22:43;;;;;;;1.73;1.57;;;11.50;97.90;;;;;;5038500;28;20507;-86
2023/12/28 07:25:21;;;;;;;1.90;1.40;;;11.60;97.80;;;;;;5029347;28;20510;-86
2023/12/28 07:27:53;;;;;;;3.03;1.97;;;11.60;97.70;;;;;;5040596;28;20999;-87
2023/12/28 07:30:44;;;;;;;;;;;;;;;;;;;;;
2023/12/28 07:33:17;;;;;;;2.00;1.80;;;11.50;97.70;;;;;;5033707;28;20462;-84
2023/12/28 07:35:53;;;;;;;1.93;1.60;;;11.30;97.70;;;;;;5034448;28;20468;-85
2023/12/28 07:38:24;;;;;;;1.73;1.50;;;11.30;98.20;;;;;;5022724;28;20463;-86
2023/12/28 07:40:59;;;;;;;5.57;1.90;;;11.50;97.80;;;;;;5017236;28;20461;-86
2023/12/28 07:43:42;;;;;;;1.67;1.57;;;11.50;97.80;;;;;;5042291;28;20448;-86
2023/12/28 07:49:41;;;;;;;1.73;1.33;;;11.40;97.60;;;;;;5043721;28;20460;-86
2023/12/28 07:52:18;;;;;;;3.60;2.07;;;11.40;97.70;;;;;;5025994;28;20484;-87
2023/12/28 07:55:05;;;;;;;2.30;1.57;;;11.40;97.80;;;;;;5034416;28;20537;-86
2023/12/28 07:58:03;;;;;;;4.37;1.67;;;11.40;97.80;;;;;;5020179;28;20442;-86
2023/12/28 08:00:50;;;;;;;3.57;1.50;;;11.50;97.70;;;;;;5043639;28;20505;-87
2023/12/28 08:03:34;;;;;;;1.60;1.50;;;11.60;97.50;;;;;;5033343;28;20463;-84
2023/12/28 08:06:41;;;;;;;3.20;1.70;;;11.50;97.30;;;;;;5025015;28;20479;-85
2023/12/28 08:09:42;;;;;;;5.07;1.90;;;11.50;97.60;;;;;;5015044;28;20972;-88
2023/12/28 08:12:21;;;;;;;1.50;1.40;;;11.50;97.50;;;;;;5023589;28;20488;-86
2023/12/28 08:15:02;;;;;;;5.20;2.13;;;11.50;97.60;;;;;;5023261;28;20479;-86
2023/12/28 08:17:49;;;;;;;2.93;1.60;;;11.60;97.60;;;;;;5017178;28;21963;-88
2023/12/28 08:20:33;;;;;;;3.73;1.30;;;11.50;97.60;;;;;;5019881;28;20464;-86
2023/12/28 08:23:19;;;;;;;2.47;1.50;;;11.60;97.50;;;;;;5026828;28;20453;-86
2023/12/28 08:26:00;;;;;;;2.40;1.60;;;11.60;97.50;;;;;;5030025;28;20487;-87
2023/12/28 08:28:31;;;;;;;2.67;1.70;;;11.70;97.30;;;;;;5024680;28;20460;-86
2023/12/28 08:31:20;;;;;;;3.53;1.80;;;11.60;97.20;;;;;;5019584;28;20496;-86
2023/12/28 08:33:59;;;;;;;2.00;1.40;;;11.60;97.50;;;;;;5028327;28;20449;-87
2023/12/28 08:36:52;;;;;;;2.57;1.80;;;11.60;97.50;;;;;;5034202;28;20463;-88
2023/12/28 08:39:25;;;;;;;1.87;1.27;;;11.80;97.20;;;;;;5017189;28;20457;-86
2023/12/28 08:42:29;;;;;;;4.50;1.93;;;11.80;97.20;;;;;;5021876;28;20469;-86
2023/12/28 08:45:02;;;;;;;2.03;1.60;;;11.80;97.10;;;;;;5025982;28;20477;-84
2023/12/28 08:47:56;;;;;;;3.70;1.73;;;11.80;97.20;;;;;;5028607;28;20783;-88
2023/12/28 08:50:51;;;;;;;1.80;1.50;;;11.80;97.20;;;;;;5035168;28;20444;-85
2023/12/28 08:53:44;;;;;;;2.40;1.53;;;11.80;97.20;;;;;;5032075;28;20544;-86
2023/12/28 08:56:54;;;;;;;4.87;2.17;;;11.90;97.00;;;;;;5044098;28;20456;-86
2023/12/28 08:59:30;;;;;;;3.23;1.93;;;11.90;97.00;;;;;;5018257;28;20471;-85
2023/12/28 09:02:08;;;;;;;3.10;1.67;;;11.90;97.00;;;;;;5040923;28;20459;-84
2023/12/28 09:04:47;;;;;;;2.77;1.77;;;12.00;96.80;;;;;;5017638;28;20485;-89
2023/12/28 09:07:26;;;;;;;4.80;1.43;;;12.00;96.80;;;;;;5024675;28;20473;-87
2023/12/28 09:10:23;;;;;;;2.77;1.57;;;12.00;96.70;;;;;;5032134;28;20500;-82
2023/12/28 09:13:18;;;;;;;1.40;1.30;;;12.00;96.70;;;;;;5026483;28;20464;-84
2023/12/28 09:16:06;;;;;;;3.03;2.73;;;12.00;96.80;;;;;;5026056;28;21506;-87
2023/12/28 09:19:05;;;;;;;2.80;1.40;;;12.10;96.70;;;;;;5030604;28;20533;-85
2023/12/28 09:21:55;;;;;;;3.17;1.60;;;12.10;96.80;;;;;;5041814;28;20465;-87
2023/12/28 09:24:37;;;;;;;2.70;1.33;;;12.10;96.60;;;;;;5039180;28;20543;-86
2023/12/28 09:27:25;;;;;;;2.53;1.50;;;12.20;96.60;;;;;;5039138;28;20440;-84
2023/12/28 09:29:58;;;;;;;2.03;1.27;;;12.10;96.50;;;;;;5046214;28;21489;-88
2023/12/28 09:33:10;;;;;;;3.33;1.30;;;12.10;96.60;;;;;;5034319;28;21094;-86
2023/12/28 09:35:42;;;;;;;1.90;1.40;;;12.20;96.40;;;;;;4967062;28;20566;-88
2023/12/28 09:38:29;;;;;;;1.93;1.27;;;12.10;96.40;;;;;;5029549;28;20496;-86
2023/12/28 09:41:37;;;;;;;3.57;1.70;;;12.40;96.30;;;;;;5019885;28;20461;-87
2023/12/28 09:44:24;;;;;;;2.10;1.40;;;12.50;96.10;;;;;;5024108;28;20475;-85
2023/12/28 09:47:15;;;;;;;7.27;1.20;;;12.40;95.90;;;;;;5022372;28;20450;-87
2023/12/28 09:49:50;;;;;;;2.83;1.67;;;12.50;96.00;;;;;;5034392;28;20453;-85
2023/12/28 09:52:32;;;;;;;;;;;;;;;;;;;;;
2023/12/28 09:55:11;;;;;;;4.93;1.70;;;12.60;95.80;;;;;;5050636;28;20488;-88
2023/12/28 09:57:51;;;;;;;3.57;1.50;;;12.60;95.80;;;;;;5046166;28;20517;-85
2023/12/28 10:00:31;;;;;;;4.23;1.60;;;12.70;95.80;;;;;;5044657;28;20453;-87
2023/12/28 10:03:23;;;;;;;2.37;1.23;;;12.80;95.40;;;;;;5036563;28;21171;-87
2023/12/28 10:06:07;;;;;;;3.27;1.30;;;12.90;95.50;;;;;;5042644;28;20480;-87
2023/12/28 10:08:51;;;;;;;1.73;1.50;;;12.90;95.10;;;;;;5041686;28;20465;-88
2023/12/28 10:11:27;;;;;;;4.30;1.37;;;12.90;95.00;;;;;;5044877;28;20474;-85
2023/12/28 10:14:17;;;;;;;5.20;1.90;;;13.00;95.00;;;;;;5035188;28;21761;-85
2023/12/28 10:16:49;;;;;;;1.80;1.00;;;13.20;94.90;;;;;;5022307;28;20438;-87
2023/12/28 10:19:23;;;;;;;3.40;1.47;;;13.40;94.40;;;;;;5022651;28;20453;-84
2023/12/28 10:21:53;;;;;;;1.83;1.10;;;13.40;94.10;;;;;;5013667;28;20556;-84
2023/12/28 10:27:26;;;;;;;4.43;1.50;;;13.50;94.20;;;;;;5031622;28;20442;-85
2023/12/28 10:30:22;;;;;;;2.60;1.10;;;13.70;93.70;;;;;;5021163;28;20470;-86
2023/12/28 10:33:05;;;;;;;1.60;1.33;;;13.80;93.20;;;;;;5011964;28;20495;-83
2023/12/28 10:36:00;;;;;;;2.10;1.43;;;13.90;93.10;;;;;;5012847;28;20487;-87
2023/12/28 10:38:54;;;;;;;2.73;1.20;;;14.00;92.90;;;;;;5016744;28;20467;-86
2023/12/28 10:41:35;;;;;;;2.93;1.50;;;14.00;92.60;;;;;;5015342;28;20538;-87
2023/12/28 10:44:22;;;;;;;5.57;1.37;;;14.00;92.70;;;;;;5011724;28;20516;-87
2023/12/28 10:47:02;;;;;;;2.47;1.27;;;13.90;92.50;;;;;;5013942;28;20458;-88
2023/12/28 10:49:53;;;;;;;7.07;1.20;;;14.00;92.60;;;;;;5010021;28;20776;-86
2023/12/28 10:52:34;;;;;;;2.63;1.30;;;14.00;92.20;;;;;;4995939;28;20475;-87
2023/12/28 10:55:30;;;;;;;1.70;1.43;;;13.80;92.30;;;;;;4995946;28;20561;-88
2023/12/28 10:58:23;;;;;;;5.70;1.90;;;13.90;92.40;;;;;;4991247;28;20490;-87
2023/12/28 11:01:02;;;;;;;5.67;1.37;;;13.90;91.90;;;;;;4999301;28;20434;-84
2023/12/28 11:03:50;;;;;;;7.63;2.00;;;13.80;92.00;;;;;;5007105;28;20481;-86
2023/12/28 11:06:27;;;;;;;3.60;1.27;;;14.00;92.00;;;;;;5015983;28;20482;-84
2023/12/28 11:09:20;;;;;;;5.33;1.63;;;14.00;92.00;;;;;;5000884;28;20450;-85
2023/12/28 11:11:58;;;;;;;5.53;1.83;;;14.10;91.90;;;;;;4995713;28;20509;-87
2023/12/28 11:14:38;;;;;;;4.13;1.97;;;14.10;91.60;;;;;;4996466;28;22356;-87
2023/12/28 11:17:37;;;;;;;2.97;1.10;;;14.10;91.60;;;;;;5001584;28;20442;-85
2023/12/28 11:20:19;;;;;;;4.40;1.20;;;13.90;91.90;;;;;;4997571;28;20458;-85
2023/12/28 11:22:52;;;;;;;4.43;1.97;;;13.90;91.50;;;;;;5013782;28;20454;-87
2023/12/28 11:25:32;;;;;;;3.57;1.50;;;14.00;91.80;;;;;;4994975;28;20482;-86
2023/12/28 11:28:08;;;;;;;3.03;1.20;;;14.10;91.40;;;;;;5002992;28;20466;-85
2023/12/28 11:30:44;;;;;;;3.47;1.37;;;14.00;91.70;;;;;;4997676;28;20464;-87
2023/12/28 11:33:22;;;;;;;3.73;1.50;;;14.20;91.10;;;;;;4998796;28;20500;-86
2023/12/28 11:35:55;;;;;;;3.00;1.13;;;14.20;91.20;;;;;;5006517;28;20953;-87
2023/12/28 11:38:36;;;;;;;2.17;1.30;;;14.00;91.20;;;;;;5004835;28;20463;-86
2023/12/28 11:41:07;;;;;;;3.67;1.10;;;14.20;91.30;;;;;;5026840;28;20455;-89
2023/12/28 11:50:21;;;;;;;3.10;1.40;;;14.60;90.40;;;;;;5018190;28;20447;-83
2023/12/28 11:53:24;;;;;;;3.13;1.50;;;14.40;90.50;;;;;;5013763;28;20500;-84
2023/12/28 11:56:09;;;;;;;1.80;1.07;;;14.20;90.80;;;;;;5007480;28;20482;-85
2023/12/28 11:58:42;;;;;;;4.53;1.53;;;14.00;91.00;;;;;;4994838;28;20449;-85
2023/12/28 12:01:16;;;;;;;3.83;1.30;;;14.40;90.90;;;;;;4994258;28;20476;-87
2023/12/28 12:04:12;;;;;;;2.97;1.20;;;14.30;90.70;;;;;;4995986;28;20466;-87
2023/12/28 12:06:55;;;;;;;2.57;1.30;;;13.90;90.90;;;;;;5039489;23;20530;-87
2023/12/28 12:10:05;;;;;;;2.83;1.30;;;14.40;91.10;;;;;;5017210;28;20462;-85
2023/12/28 12:12:39;;;;;;;1.60;1.17;;;14.30;90.70;;;;;;5035374;28;20490;-86
2023/12/28 12:15:25;;;;;;;2.30;1.20;;;14.50;90.70;;;;;;5030734;28;20496;-87
2023/12/28 12:18:00;;;;;;;1.47;1.00;;;14.50;90.50;;;;;;5017064;28;20457;-85
2023/12/28 12:20:40;;;;;;;3.37;1.23;;;14.40;90.20;;;;;;5033578;28;21617;-86
2023/12/28 12:23:21;;;;;;;6.23;1.67;;;14.40;90.00;;;;;;5020028;28;20461;-87
2023/12/28 12:26:01;;;;;;;2.70;1.27;;;14.40;89.60;;;;;;5034170;28;20482;-86
2023/12/28 12:28:32;;;;;;;1.40;1.13;;;14.30;90.00;;;;;;4996622;28;20477;-86
2023/12/28 12:31:04;;;;;;;1.57;1.10;;;14.30;90.00;;;;;;5019289;28;20546;-88
2023/12/28 12:33:41;;;;;;;5.03;1.30;;;14.10;90.10;;;;;;5015118;28;20463;-87
2023/12/28 12:36:24;;;;;;;3.73;1.27;;;14.40;90.00;;;;;;5035256;28;20517;-85
2023/12/28 12:39:19;;;;;;;2.57;1.10;;;14.30;90.00;;;;;;5036208;28;20461;-87
2023/12/28 12:42:05;;;;;;;;;;;;;;;;;;;;;
2023/12/28 12:44:45;;;;;;;4.37;1.13;;;14.50;89.30;;;;;;5042387;28;20434;-85
2023/12/28 12:47:40;;;;;;;3.30;1.43;;;14.60;89.10;;;;;;5018848;28;20454;-87
2023/12/28 12:50:15;;;;;;;2.63;1.20;;;14.40;89.20;;;;;;5020057;28;20474;-89
2023/12/28 12:52:59;;;;;;;5.60;1.40;;;14.40;89.30;;;;;;5020752;28;20513;-86
2023/12/28 12:55:32;;;;;;;3.70;1.20;;;14.10;89.90;;;;;;5020679;28;20462;-87
2023/12/28 12:58:17;;;;;;;2.67;1.40;;;14.10;90.30;;;;;;5022069;28;20534;-89
2023/12/28 13:00:53;;;;;;;1.20;0.90;;;14.30;90.10;;;;;;5014639;28;20457;-87
2023/12/28 13:03:30;;;;;;;3.17;1.30;;;14.40;89.90;;;;;;5036146;28;20453;-87
2023/12/28 13:06:04;;;;;;;7.13;1.67;;;14.30;90.00;;;;;;5014382;28;20608;-84
2023/12/28 13:08:35;;;;;;;2.17;1.40;;;14.30;89.90;;;;;;5031764;28;20473;-87
2023/12/28 13:11:07;;;;;;;1.70;1.10;;;14.40;89.40;;;;;;5027426;28;20457;-86
2023/12/28 13:13:39;;;;;;;2.90;1.13;;;14.40;89.40;;;;;;5362346;22;20502;-86
2023/12/28 13:16:19;;;;;;;2.37;1.13;;;14.20;90.00;;;;;;5017416;28;20485;-86
2023/12/28 13:18:58;;;;;;;5.43;1.60;;;13.90;90.40;;;;;;5042757;28;20461;-87
2023/12/28 13:21:34;;;;;;;2.80;1.20;;;14.40;90.20;;;;;;5047712;28;20471;-86
2023/12/28 13:24:50;;;;;;;2.67;1.60;;;14.40;89.70;;;;;;5043313;28;20584;-85
2023/12/28 13:27:29;;;;;;;1.30;1.20;;;14.40;89.10;;;;;;5032878;28;20480;-87
2023/12/28 13:30:12;;;;;;;2.20;0.90;;;14.30;89.40;;;;;;5044269;28;20468;-85
2023/12/28 13:32:52;;;;;;;2.70;1.10;;;14.10;89.70;;;;;;5024134;28;20484;-86
2023/12/28 13:35:30;;;;;;;1.77;1.30;;;13.90;90.20;;;;;;5020090;28;20473;-85
2023/12/28 13:38:08;;;;;;;6.33;1.50;;;14.30;90.00;;;;;;5030054;28;20472;-87
2023/12/28 13:40:38;;;;;;;3.40;1.03;;;14.20;89.50;;;;;;5027049;28;20948;-84
2023/12/28 13:43:09;;;;;;;2.40;1.00;;;14.20;89.90;;;;;;5032102;28;20566;-85
2023/12/28 13:45:39;;;;;;;5.30;1.50;;;14.20;90.10;;;;;;5026168;28;20484;-87
2023/12/28 13:48:16;;;;;;;5.83;1.90;;;14.10;90.00;;;;;;5045093;28;20455;-85
2023/12/28 13:50:50;;;;;;;8.90;1.80;;;14.10;90.00;;;;;;5024325;28;20879;-87
2023/12/28 13:53:40;;;;;;;3.20;1.47;;;14.10;90.10;;;;;;5030756;28;20485;-88
2023/12/28 13:56:24;;;;;;;2.00;1.20;;;14.10;90.00;;;;;;5034260;28;20469;-84
2023/12/28 13:59:05;;;;;;;1.83;1.00;;;14.00;90.10;;;;;;5038900;28;20453;-86
2023/12/28 14:01:35;;;;;;;4.03;1.43;;;14.00;90.30;;;;;;5047464;28;20447;-86
2023/12/28 14:04:04;;;;;;;4.67;1.53;;;14.00;90.20;;;;;;5044069;28;20453;-84
2023/12/28 14:06:33;;;;;;;4.10;0.80;;;14.00;90.30;;;;;;5018955;28;20544;-86
2023/12/28 14:09:06;;;;;;;2.73;1.20;;;13.90;90.10;;;;;;5038835;28;20449;-83
2023/12/28 14:11:38;;;;;;;4.70;1.27;;;13.80;90.30;;;;;;5039010;28;20978;-84
2023/12/28 14:14:19;;;;;;;1.40;1.17;;;13.70;90.50;;;;;;5047295;28;20525;-84
2023/12/28 14:16:50;;;;;;;2.57;1.40;;;13.70;90.70;;;;;;5043161;28;20437;-84
2023/12/28 14:19:24;;;;;;;2.93;1.40;;;13.80;90.60;;;;;;5041211;28;20444;-85
2023/12/28 14:21:58;;;;;;;4.07;1.30;;;13.70;90.70;;;;;;5045031;28;20654;-86
2023/12/28 14:24:39;;;;;;;3.03;1.10;;;13.70;90.70;;;;;;5047697;28;20438;-87
2023/12/28 14:27:27;;;;;;;5.17;1.93;;;13.60;90.80;;;;;;5033042;28;20476;-86
2023/12/28 14:30:03;;;;;;;1.57;1.13;;;13.70;90.80;;;;;;5034154;28;20462;-84
2023/12/28 14:32:37;;;;;;;2.00;1.20;;;13.60;90.70;;;;;;5033419;28;20469;-85
2023/12/28 14:35:26;;;;;;;6.53;1.67;;;13.60;90.80;;;;;;5036842;28;20491;-85
2023/12/28 14:37:59;;;;;;;1.47;1.00;;;13.40;90.90;;;;;;5029116;28;20466;-86
2023/12/28 14:40:38;;;;;;;2.50;1.00;;;13.40;91.10;;;;;;5034957;28;20458;-86
2023/12/28 14:43:34;;;;;;;4.47;1.40;;;13.50;90.90;;;;;;5046181;28;20473;-84
2023/12/28 14:46:14;;;;;;;3.20;1.43;;;13.50;91.10;;;;;;5028800;28;20481;-88
2023/12/28 14:48:48;;;;;;;3.60;1.37;;;13.60;91.00;;;;;;5031093;28;21883;-86
2023/12/28 14:51:29;;;;;;;5.67;1.83;;;13.50;90.90;;;;;;5046796;28;20485;-83
2023/12/28 14:54:18;;;;;;;2.60;1.20;;;13.40;91.00;;;;;;5032222;28;20504;-85
2023/12/28 14:56:46;;;;;;;3.23;1.27;;;13.50;91.20;;;;;;5028856;28;20554;-84